Alligator, Mississippi
Current Conditions -  °F | °C
As of 2:55 PM on Friday 31 Oct 2014 (Local Time) from KCKM Reporting Station
Broken Clouds Broken Clouds  
Wind Chill: 57°   Ceiling: 5000
Heat Index: 57°   Visibility: 10mi
Dew Point: 46°   Wind: 20mph
Humidity: 67%   Direction: 340°NNW
Pressure: 30.15"   Gusts: 28mph
Location:  34.09°N, 90.72°W
Report Text: KCKM 311955Z AUTO 34017G24KT 10SM SCT040 BKN050 14/08 A3015 RMK AO1
Loading
Personal Weather Stations






























Interactive Weather Map New forecast layout! Learn more

10-Day Weather Forecast

Advertisements
Track Severe Weather on mobile